sensor_id;sensor_type;location;lat;lon;timestamp;pressure;altitude;pressure_sealevel;temperature;humidity
3780;BME280;1905;52.482;9.802;2022-07-04T00:01:48;101328.41;;;20.92;51.82
3780;BME280;1905;52.482;9.802;2022-07-04T00:04:16;101331.47;;;20.87;51.91
3780;BME280;1905;52.482;9.802;2022-07-04T00:06:44;101329.09;;;20.83;52.14
3780;BME280;1905;52.482;9.802;2022-07-04T00:09:11;101333.75;;;20.81;52.06
3780;BME280;1905;52.482;9.802;2022-07-04T00:11:39;101327.88;;;20.75;52.20
3780;BME280;1905;52.482;9.802;2022-07-04T00:14:06;101323.69;;;20.71;52.24
3780;BME280;1905;52.482;9.802;2022-07-04T00:16:36;101317.19;;;20.63;52.13
3780;BME280;1905;52.482;9.802;2022-07-04T00:19:03;101322.81;;;20.60;52.35
3780;BME280;1905;52.482;9.802;2022-07-04T00:21:31;101323.88;;;20.57;52.36
3780;BME280;1905;52.482;9.802;2022-07-04T00:24:00;101328.00;;;20.50;52.35
3780;BME280;1905;52.482;9.802;2022-07-04T00:26:27;101335.31;;;20.48;52.61
3780;BME280;1905;52.482;9.802;2022-07-04T00:28:55;101332.13;;;20.43;52.16
3780;BME280;1905;52.482;9.802;2022-07-04T00:31:23;101334.28;;;20.38;52.66
3780;BME280;1905;52.482;9.802;2022-07-04T00:33:52;101329.16;;;20.35;52.70
3780;BME280;1905;52.482;9.802;2022-07-04T00:36:20;101329.59;;;20.29;52.87
3780;BME280;1905;52.482;9.802;2022-07-04T00:38:47;101321.91;;;20.25;52.70
3780;BME280;1905;52.482;9.802;2022-07-04T00:41:15;101324.00;;;20.19;52.97
3780;BME280;1905;52.482;9.802;2022-07-04T00:43:43;101321.66;;;20.15;52.80
3780;BME280;1905;52.482;9.802;2022-07-04T00:46:30;101320.19;;;20.11;52.37
3780;BME280;1905;52.482;9.802;2022-07-04T00:49:00;101327.59;;;20.07;53.02
3780;BME280;1905;52.482;9.802;2022-07-04T00:51:28;101331.56;;;20.02;53.13
3780;BME280;1905;52.482;9.802;2022-07-04T00:53:56;101330.06;;;19.98;53.23
3780;BME280;1905;52.482;9.802;2022-07-04T00:56:24;101319.91;;;19.90;53.32
3780;BME280;1905;52.482;9.802;2022-07-04T00:58:53;101327.31;;;19.87;53.33
3780;BME280;1905;52.482;9.802;2022-07-04T01:01:21;101334.81;;;19.82;53.32
3780;BME280;1905;52.482;9.802;2022-07-04T01:03:48;101336.03;;;19.78;53.30
3780;BME280;1905;52.482;9.802;2022-07-04T01:06:19;101332.69;;;19.74;53.60
3780;BME280;1905;52.482;9.802;2022-07-04T01:08:46;101330.56;;;19.67;53.54
3780;BME280;1905;52.482;9.802;2022-07-04T01:11:14;101332.50;;;19.65;53.68
3780;BME280;1905;52.482;9.802;2022-07-04T01:13:42;101325.63;;;19.60;53.64
3780;BME280;1905;52.482;9.802;2022-07-04T01:16:11;101327.78;;;19.55;53.67
3780;BME280;1905;52.482;9.802;2022-07-04T01:18:39;101337.97;;;19.50;53.72
3780;BME280;1905;52.482;9.802;2022-07-04T01:21:08;101334.44;;;19.50;53.72
3780;BME280;1905;52.482;9.802;2022-07-04T01:23:37;101333.16;;;19.43;53.87
3780;BME280;1905;52.482;9.802;2022-07-04T01:26:05;101331.66;;;19.39;53.49
3780;BME280;1905;52.482;9.802;2022-07-04T01:28:35;101336.44;;;19.34;53.77
3780;BME280;1905;52.482;9.802;2022-07-04T01:31:03;101333.03;;;19.32;53.90
3780;BME280;1905;52.482;9.802;2022-07-04T01:33:31;101334.19;;;19.28;54.02
3780;BME280;1905;52.482;9.802;2022-07-04T01:35:59;101343.50;;;19.22;54.04
3780;BME280;1905;52.482;9.802;2022-07-04T01:38:28;101335.88;;;19.16;54.11
3780;BME280;1905;52.482;9.802;2022-07-04T01:40:56;101329.03;;;19.12;54.23
3780;BME280;1905;52.482;9.802;2022-07-04T01:43:24;101330.97;;;19.10;54.54
3780;BME280;1905;52.482;9.802;2022-07-04T01:45:51;101334.81;;;19.06;54.27
3780;BME280;1905;52.482;9.802;2022-07-04T01:48:19;101318.94;;;19.03;54.25
3780;BME280;1905;52.482;9.802;2022-07-04T01:50:46;101324.72;;;18.97;54.44
3780;BME280;1905;52.482;9.802;2022-07-04T01:53:14;101324.94;;;18.94;54.27
3780;BME280;1905;52.482;9.802;2022-07-04T01:55:43;101315.41;;;18.90;54.40
3780;BME280;1905;52.482;9.802;2022-07-04T01:58:10;101321.94;;;18.86;54.41
3780;BME280;1905;52.482;9.802;2022-07-04T02:00:38;101324.91;;;18.81;54.52
3780;BME280;1905;52.482;9.802;2022-07-04T02:03:24;101322.53;;;18.77;54.49
3780;BME280;1905;52.482;9.802;2022-07-04T02:05:51;101317.28;;;18.75;54.62
3780;BME280;1905;52.482;9.802;2022-07-04T02:08:19;101320.38;;;18.69;54.80
3780;BME280;1905;52.482;9.802;2022-07-04T02:10:48;101313.31;;;18.68;54.58
3780;BME280;1905;52.482;9.802;2022-07-04T02:13:16;101337.78;;;18.62;54.74
3780;BME280;1905;52.482;9.802;2022-07-04T02:15:42;101329.13;;;18.59;54.73
3780;BME280;1905;52.482;9.802;2022-07-04T02:18:10;101327.41;;;18.58;54.89
3780;BME280;1905;52.482;9.802;2022-07-04T02:20:38;101329.53;;;18.53;54.88
3780;BME280;1905;52.482;9.802;2022-07-04T02:23:06;101322.66;;;18.49;54.88
3780;BME280;1905;52.482;9.802;2022-07-04T02:25:33;101337.19;;;18.44;55.06
3780;BME280;1905;52.482;9.802;2022-07-04T02:28:05;101323.25;;;18.39;55.27
3780;BME280;1905;52.482;9.802;2022-07-04T02:30:33;101319.78;;;18.37;55.08
3780;BME280;1905;52.482;9.802;2022-07-04T02:33:01;101330.69;;;18.34;55.27
3780;BME280;1905;52.482;9.802;2022-07-04T02:35:29;101331.00;;;18.30;54.85
3780;BME280;1905;52.482;9.802;2022-07-04T02:37:57;101330.34;;;18.26;55.32
3780;BME280;1905;52.482;9.802;2022-07-04T02:40:25;101330.44;;;18.25;55.15
3780;BME280;1905;52.482;9.802;2022-07-04T02:42:52;101331.50;;;18.22;55.27
3780;BME280;1905;52.482;9.802;2022-07-04T02:45:22;101325.81;;;18.14;55.29
3780;BME280;1905;52.482;9.802;2022-07-04T02:47:49;101331.22;;;18.13;55.11
3780;BME280;1905;52.482;9.802;2022-07-04T02:50:17;101342.91;;;18.12;55.45
3780;BME280;1905;52.482;9.802;2022-07-04T02:52:44;101344.91;;;18.08;55.52
3780;BME280;1905;52.482;9.802;2022-07-04T02:55:12;101339.94;;;18.02;55.58
3780;BME280;1905;52.482;9.802;2022-07-04T02:57:40;101352.56;;;18.00;55.51
3780;BME280;1905;52.482;9.802;2022-07-04T03:00:08;101357.22;;;17.97;55.71
3780;BME280;1905;52.482;9.802;2022-07-04T03:02:38;101354.84;;;17.92;55.74
3780;BME280;1905;52.482;9.802;2022-07-04T03:05:06;101368.41;;;17.89;55.48
3780;BME280;1905;52.482;9.802;2022-07-04T03:07:34;101367.66;;;17.87;55.57
3780;BME280;1905;52.482;9.802;2022-07-04T03:10:02;101367.84;;;17.84;55.64
3780;BME280;1905;52.482;9.802;2022-07-04T03:12:29;101377.88;;;17.80;55.88
3780;BME280;1905;52.482;9.802;2022-07-04T03:14:59;101373.75;;;17.75;55.57
3780;BME280;1905;52.482;9.802;2022-07-04T03:17:27;101379.28;;;17.72;55.91
3780;BME280;1905;52.482;9.802;2022-07-04T03:19:56;101383.88;;;17.70;55.81
3780;BME280;1905;52.482;9.802;2022-07-04T03:22:26;101379.69;;;17.66;55.71
3780;BME280;1905;52.482;9.802;2022-07-04T03:24:53;101386.91;;;17.64;55.79
3780;BME280;1905;52.482;9.802;2022-07-04T03:27:23;101404.97;;;17.60;56.02
3780;BME280;1905;52.482;9.802;2022-07-04T03:29:53;101398.00;;;17.58;56.17
3780;BME280;1905;52.482;9.802;2022-07-04T03:32:21;101412.31;;;17.57;56.03
3780;BME280;1905;52.482;9.802;2022-07-04T03:34:53;101411.63;;;17.53;55.96
3780;BME280;1905;52.482;9.802;2022-07-04T03:37:22;101413.59;;;17.50;55.90
3780;BME280;1905;52.482;9.802;2022-07-04T03:39:49;101411.13;;;17.47;55.88
3780;BME280;1905;52.482;9.802;2022-07-04T03:42:17;101410.25;;;17.46;56.09
3780;BME280;1905;52.482;9.802;2022-07-04T03:44:44;101406.91;;;17.43;56.02
3780;BME280;1905;52.482;9.802;2022-07-04T03:47:13;101411.31;;;17.44;56.33
3780;BME280;1905;52.482;9.802;2022-07-04T03:49:41;101417.88;;;17.38;55.71
3780;BME280;1905;52.482;9.802;2022-07-04T03:52:08;101426.06;;;17.35;56.20
3780;BME280;1905;52.482;9.802;2022-07-04T03:54:38;101433.31;;;17.33;55.95
3780;BME280;1905;52.482;9.802;2022-07-04T03:57:05;101430.66;;;17.33;56.13
3780;BME280;1905;52.482;9.802;2022-07-04T03:59:33;101430.81;;;17.30;56.08
3780;BME280;1905;52.482;9.802;2022-07-04T04:02:01;101428.03;;;17.32;55.99
3780;BME280;1905;52.482;9.802;2022-07-04T04:04:28;101430.81;;;17.30;56.73
3780;BME280;1905;52.482;9.802;2022-07-04T04:07:14;101435.47;;;17.26;56.41
3780;BME280;1905;52.482;9.802;2022-07-04T04:09:43;101444.47;;;17.25;56.25
3780;BME280;1905;52.482;9.802;2022-07-04T04:12:11;101447.13;;;17.25;56.59
3780;BME280;1905;52.482;9.802;2022-07-04T04:14:38;101437.38;;;17.24;56.50
3780;BME280;1905;52.482;9.802;2022-07-04T04:17:06;101435.66;;;17.23;56.20
3780;BME280;1905;52.482;9.802;2022-07-04T04:19:34;101441.16;;;17.20;56.34
3780;BME280;1905;52.482;9.802;2022-07-04T04:22:02;101438.50;;;17.20;56.30
3780;BME280;1905;52.482;9.802;2022-07-04T04:24:30;101443.06;;;17.18;56.25
3780;BME280;1905;52.482;9.802;2022-07-04T04:26:59;101439.66;;;17.16;56.25
3780;BME280;1905;52.482;9.802;2022-07-04T04:29:27;101448.41;;;17.18;56.49
3780;BME280;1905;52.482;9.802;2022-07-04T04:31:55;101452.06;;;17.17;56.65
3780;BME280;1905;52.482;9.802;2022-07-04T04:34:22;101457.41;;;17.17;56.99
3780;BME280;1905;52.482;9.802;2022-07-04T04:36:50;101451.19;;;17.17;56.49
3780;BME280;1905;52.482;9.802;2022-07-04T04:39:18;101447.72;;;17.15;56.60
3780;BME280;1905;52.482;9.802;2022-07-04T04:41:46;101450.31;;;17.16;56.76
3780;BME280;1905;52.482;9.802;2022-07-04T04:44:15;101455.66;;;17.16;56.39
3780;BME280;1905;52.482;9.802;2022-07-04T04:46:45;101456.78;;;17.12;56.81
3780;BME280;1905;52.482;9.802;2022-07-04T04:49:13;101455.66;;;17.16;56.46
3780;BME280;1905;52.482;9.802;2022-07-04T04:51:40;101454.81;;;17.16;56.30
3780;BME280;1905;52.482;9.802;2022-07-04T04:54:08;101459.28;;;17.15;56.31
3780;BME280;1905;52.482;9.802;2022-07-04T04:56:36;101455.66;;;17.16;56.23
3780;BME280;1905;52.482;9.802;2022-07-04T04:59:04;101466.16;;;17.19;56.44
3780;BME280;1905;52.482;9.802;2022-07-04T05:01:33;101462.03;;;17.14;57.04
3780;BME280;1905;52.482;9.802;2022-07-04T05:04:09;101469.19;;;17.13;56.67
3780;BME280;1905;52.482;9.802;2022-07-04T05:06:37;101469.00;;;17.16;56.59
3780;BME280;1905;52.482;9.802;2022-07-04T05:09:04;101476.09;;;17.17;56.14
3780;BME280;1905;52.482;9.802;2022-07-04T05:11:33;101470.63;;;17.19;56.03
3780;BME280;1905;52.482;9.802;2022-07-04T05:14:01;101471.69;;;17.16;56.31
3780;BME280;1905;52.482;9.802;2022-07-04T05:16:29;101475.97;;;17.19;56.53
3780;BME280;1905;52.482;9.802;2022-07-04T05:18:58;101467.03;;;17.20;56.22
3780;BME280;1905;52.482;9.802;2022-07-04T05:21:26;101470.47;;;17.22;56.80
3780;BME280;1905;52.482;9.802;2022-07-04T05:23:54;101473.22;;;17.20;56.53
3780;BME280;1905;52.482;9.802;2022-07-04T05:26:22;101482.00;;;17.22;57.27
3780;BME280;1905;52.482;9.802;2022-07-04T05:28:50;101473.22;;;17.20;57.12
3780;BME280;1905;52.482;9.802;2022-07-04T05:31:18;101480.09;;;17.24;57.27
3780;BME280;1905;52.482;9.802;2022-07-04T05:33:45;101480.97;;;17.25;57.26
3780;BME280;1905;52.482;9.802;2022-07-04T05:36:14;101479.25;;;17.24;56.76
3780;BME280;1905;52.482;9.802;2022-07-04T05:38:42;101484.50;;;17.25;56.60
3780;BME280;1905;52.482;9.802;2022-07-04T05:41:10;101471.16;;;17.25;56.80
3780;BME280;1905;52.482;9.802;2022-07-04T05:43:37;101470.78;;;17.32;56.96
3780;BME280;1905;52.482;9.802;2022-07-04T05:46:05;101472.50;;;17.33;56.57
3780;BME280;1905;52.482;9.802;2022-07-04T05:48:35;101474.22;;;17.34;56.26
3780;BME280;1905;52.482;9.802;2022-07-04T05:51:12;101479.75;;;17.31;56.76
3780;BME280;1905;52.482;9.802;2022-07-04T05:53:53;101478.59;;;17.35;56.69
3780;BME280;1905;52.482;9.802;2022-07-04T05:56:21;101485.31;;;17.42;56.60
3780;BME280;1905;52.482;9.802;2022-07-04T05:58:49;101476.28;;;17.44;56.47
3780;BME280;1905;52.482;9.802;2022-07-04T06:01:18;101474.25;;;17.48;56.71
3780;BME280;1905;52.482;9.802;2022-07-04T06:03:47;101470.81;;;17.46;56.17
3780;BME280;1905;52.482;9.802;2022-07-04T06:06:14;101467.97;;;17.49;56.28
3780;BME280;1905;52.482;9.802;2022-07-04T06:08:43;101476.84;;;17.49;56.93
3780;BME280;1905;52.482;9.802;2022-07-04T06:11:12;101456.34;;;17.50;56.79
3780;BME280;1905;52.482;9.802;2022-07-04T06:13:41;101455.22;;;17.54;57.46
3780;BME280;1905;52.482;9.802;2022-07-04T06:16:08;101462.13;;;17.58;57.08
3780;BME280;1905;52.482;9.802;2022-07-04T06:18:36;101459.34;;;17.59;58.96
3780;BME280;1905;52.482;9.802;2022-07-04T06:21:04;101451.44;;;17.58;57.14
3780;BME280;1905;52.482;9.802;2022-07-04T06:23:31;101448.38;;;17.64;58.02
3780;BME280;1905;52.482;9.802;2022-07-04T06:25:59;101459.84;;;17.66;57.62
3780;BME280;1905;52.482;9.802;2022-07-04T06:28:28;101450.84;;;17.67;58.40
3780;BME280;1905;52.482;9.802;2022-07-04T06:31:12;101459.44;;;17.72;59.62
3780;BME280;1905;52.482;9.802;2022-07-04T06:33:40;101462.03;;;17.73;58.21
3780;BME280;1905;52.482;9.802;2022-07-04T06:36:23;101464.44;;;17.78;56.70
3780;BME280;1905;52.482;9.802;2022-07-04T06:38:50;101464.06;;;17.84;56.46
3780;BME280;1905;52.482;9.802;2022-07-04T06:41:18;101462.47;;;17.96;57.98
3780;BME280;1905;52.482;9.802;2022-07-04T06:43:47;101461.22;;;18.01;58.72
3780;BME280;1905;52.482;9.802;2022-07-04T06:46:14;101465.59;;;18.02;57.29
3780;BME280;1905;52.482;9.802;2022-07-04T06:48:42;101469.25;;;18.15;59.95
3780;BME280;1905;52.482;9.802;2022-07-04T06:51:10;101479.34;;;18.24;58.22
3780;BME280;1905;52.482;9.802;2022-07-04T06:53:40;101480.09;;;18.26;57.75
3780;BME280;1905;52.482;9.802;2022-07-04T06:56:08;101488.50;;;18.34;56.81
3780;BME280;1905;52.482;9.802;2022-07-04T06:58:36;101492.34;;;18.44;58.19
3780;BME280;1905;52.482;9.802;2022-07-04T07:01:05;101484.91;;;18.50;57.83
3780;BME280;1905;52.482;9.802;2022-07-04T07:03:33;101487.28;;;18.54;56.92
3780;BME280;1905;52.482;9.802;2022-07-04T07:06:01;101492.06;;;18.63;56.35
3780;BME280;1905;52.482;9.802;2022-07-04T07:08:29;101483.72;;;18.68;56.59
3780;BME280;1905;52.482;9.802;2022-07-04T07:10:58;101481.00;;;18.82;57.30
3780;BME280;1905;52.482;9.802;2022-07-04T07:13:40;101487.91;;;18.86;55.81
3780;BME280;1905;52.482;9.802;2022-07-04T07:16:09;101480.78;;;18.99;54.90
3780;BME280;1905;52.482;9.802;2022-07-04T07:18:37;101477.69;;;19.05;55.05
3780;BME280;1905;52.482;9.802;2022-07-04T07:21:05;101475.56;;;19.10;54.74
3780;BME280;1905;52.482;9.802;2022-07-04T07:23:33;101469.78;;;19.16;54.18
3780;BME280;1905;52.482;9.802;2022-07-04T07:26:00;101471.78;;;19.27;54.05
3780;BME280;1905;52.482;9.802;2022-07-04T07:28:28;101462.84;;;19.40;54.41
3780;BME280;1905;52.482;9.802;2022-07-04T07:30:56;101472.91;;;19.49;54.30
3780;BME280;1905;52.482;9.802;2022-07-04T07:33:24;101474.44;;;19.53;53.88
3780;BME280;1905;52.482;9.802;2022-07-04T07:35:52;101466.94;;;19.58;53.77
3780;BME280;1905;52.482;9.802;2022-07-04T07:38:20;101466.06;;;19.71;54.27
3780;BME280;1905;52.482;9.802;2022-07-04T07:40:47;101462.22;;;19.87;53.75
3780;BME280;1905;52.482;9.802;2022-07-04T07:43:15;101462.25;;;20.00;53.57
3780;BME280;1905;52.482;9.802;2022-07-04T07:45:43;101469.09;;;20.04;53.02
3780;BME280;1905;52.482;9.802;2022-07-04T07:48:11;101470.38;;;20.24;52.94
3780;BME280;1905;52.482;9.802;2022-07-04T07:50:40;101460.50;;;20.37;52.63
3780;BME280;1905;52.482;9.802;2022-07-04T07:53:07;101455.09;;;20.49;52.85
3780;BME280;1905;52.482;9.802;2022-07-04T07:55:35;101461.09;;;20.65;51.68
3780;BME280;1905;52.482;9.802;2022-07-04T07:58:03;101459.16;;;20.67;51.73
3780;BME280;1905;52.482;9.802;2022-07-04T08:00:31;101455.22;;;20.84;52.03
3780;BME280;1905;52.482;9.802;2022-07-04T08:03:19;101459.66;;;20.96;52.10
3780;BME280;1905;52.482;9.802;2022-07-04T08:06:06;101454.56;;;21.17;51.82
3780;BME280;1905;52.482;9.802;2022-07-04T08:08:33;101466.59;;;21.35;50.95
3780;BME280;1905;52.482;9.802;2022-07-04T08:11:01;101470.78;;;21.50;51.17
3780;BME280;1905;52.482;9.802;2022-07-04T08:13:29;101471.84;;;21.71;51.11
3780;BME280;1905;52.482;9.802;2022-07-04T08:15:57;101465.78;;;21.91;50.83
3780;BME280;1905;52.482;9.802;2022-07-04T08:18:24;101461.66;;;21.99;50.89
3780;BME280;1905;52.482;9.802;2022-07-04T08:20:52;101469.44;;;21.90;48.67
3780;BME280;1905;52.482;9.802;2022-07-04T08:23:33;101458.22;;;22.19;49.97
3780;BME280;1905;52.482;9.802;2022-07-04T08:26:01;101455.31;;;22.33;49.20
3780;BME280;1905;52.482;9.802;2022-07-04T08:28:29;101451.59;;;22.45;49.63
3780;BME280;1905;52.482;9.802;2022-07-04T08:30:57;101460.91;;;22.52;50.08
3780;BME280;1905;52.482;9.802;2022-07-04T08:33:26;101464.22;;;22.44;48.83
3780;BME280;1905;52.482;9.802;2022-07-04T08:36:01;101472.19;;;22.68;48.45
3780;BME280;1905;52.482;9.802;2022-07-04T08:38:30;101461.84;;;22.84;49.68
3780;BME280;1905;52.482;9.802;2022-07-04T08:40:59;101465.97;;;22.99;49.42
3780;BME280;1905;52.482;9.802;2022-07-04T08:43:30;101454.00;;;22.92;46.62
3780;BME280;1905;52.482;9.802;2022-07-04T08:46:02;101457.84;;;23.10;48.26
3780;BME280;1905;52.482;9.802;2022-07-04T08:48:51;101453.25;;;23.01;46.88
3780;BME280;1905;52.482;9.802;2022-07-04T08:51:25;101455.78;;;23.35;48.10
3780;BME280;1905;52.482;9.802;2022-07-04T08:53:57;101449.78;;;23.42;46.74
3780;BME280;1905;52.482;9.802;2022-07-04T08:56:25;101447.50;;;23.58;47.36
3780;BME280;1905;52.482;9.802;2022-07-04T08:59:14;101445.16;;;23.54;46.24
3780;BME280;1905;52.482;9.802;2022-07-04T09:01:42;101451.69;;;23.72;46.17
3780;BME280;1905;52.482;9.802;2022-07-04T09:04:11;101458.97;;;23.81;46.25
3780;BME280;1905;52.482;9.802;2022-07-04T09:06:41;101458.28;;;23.79;45.97
3780;BME280;1905;52.482;9.802;2022-07-04T09:09:11;101460.69;;;23.82;43.81
3780;BME280;1905;52.482;9.802;2022-07-04T09:11:39;101455.94;;;23.95;44.78
3780;BME280;1905;52.482;9.802;2022-07-04T09:14:07;101453.66;;;23.91;43.94
3780;BME280;1905;52.482;9.802;2022-07-04T09:16:35;101449.16;;;24.21;46.21
3780;BME280;1905;52.482;9.802;2022-07-04T09:19:02;101457.97;;;24.23;44.20
3780;BME280;1905;52.482;9.802;2022-07-04T09:21:43;101455.44;;;24.32;45.08
3780;BME280;1905;52.482;9.802;2022-07-04T09:24:12;101459.09;;;24.21;45.02
3780;BME280;1905;52.482;9.802;2022-07-04T09:26:43;101454.16;;;24.36;43.82
3780;BME280;1905;52.482;9.802;2022-07-04T09:29:12;101454.50;;;24.42;45.41
3780;BME280;1905;52.482;9.802;2022-07-04T09:31:40;101459.91;;;24.42;44.34
3780;BME280;1905;52.482;9.802;2022-07-04T09:34:08;101459.84;;;24.33;43.74
3780;BME280;1905;52.482;9.802;2022-07-04T09:36:40;101458.16;;;24.41;44.06
3780;BME280;1905;52.482;9.802;2022-07-04T09:39:10;101456.50;;;24.50;44.35
3780;BME280;1905;52.482;9.802;2022-07-04T09:41:52;101468.41;;;24.38;43.80
3780;BME280;1905;52.482;9.802;2022-07-04T09:44:21;101464.97;;;24.36;43.21
3780;BME280;1905;52.482;9.802;2022-07-04T09:46:48;101453.25;;;24.56;44.47
3780;BME280;1905;52.482;9.802;2022-07-04T09:49:16;101454.50;;;24.52;42.98
3780;BME280;1905;52.482;9.802;2022-07-04T09:51:46;101451.16;;;24.69;44.53
3780;BME280;1905;52.482;9.802;2022-07-04T09:54:16;101441.25;;;24.79;44.54
3780;BME280;1905;52.482;9.802;2022-07-04T09:56:46;101442.97;;;24.80;43.73
3780;BME280;1905;52.482;9.802;2022-07-04T09:59:16;101441.97;;;24.81;43.31
3780;BME280;1905;52.482;9.802;2022-07-04T10:01:46;101439.13;;;24.82;43.28
3780;BME280;1905;52.482;9.802;2022-07-04T10:04:14;101444.59;;;24.71;43.18
3780;BME280;1905;52.482;9.802;2022-07-04T10:06:43;101437.78;;;24.77;43.68
3780;BME280;1905;52.482;9.802;2022-07-04T10:09:12;101432.06;;;24.61;42.65
3780;BME280;1905;52.482;9.802;2022-07-04T10:11:42;101431.50;;;24.57;43.41
3780;BME280;1905;52.482;9.802;2022-07-04T10:14:12;101434.63;;;24.53;41.82
3780;BME280;1905;52.482;9.802;2022-07-04T10:16:41;101431.47;;;24.48;43.08
3780;BME280;1905;52.482;9.802;2022-07-04T10:19:09;101435.00;;;24.39;43.14
3780;BME280;1905;52.482;9.802;2022-07-04T10:21:39;101432.63;;;24.45;43.73
3780;BME280;1905;52.482;9.802;2022-07-04T10:24:10;101430.59;;;24.38;42.78
3780;BME280;1905;52.482;9.802;2022-07-04T10:26:38;101437.09;;;24.35;43.50
3780;BME280;1905;52.482;9.802;2022-07-04T10:29:06;101425.75;;;24.41;43.74
3780;BME280;1905;52.482;9.802;2022-07-04T10:31:34;101418.09;;;24.37;43.22
3780;BME280;1905;52.482;9.802;2022-07-04T10:34:04;101425.47;;;24.35;43.52
3780;BME280;1905;52.482;9.802;2022-07-04T10:36:31;101425.59;;;24.33;43.04
3780;BME280;1905;52.482;9.802;2022-07-04T10:39:02;101412.34;;;24.20;43.11
3780;BME280;1905;52.482;9.802;2022-07-04T10:41:31;101410.19;;;24.14;43.15
3780;BME280;1905;52.482;9.802;2022-07-04T10:44:02;101403.91;;;24.14;42.65
3780;BME280;1905;52.482;9.802;2022-07-04T10:46:38;101405.50;;;24.16;43.71
3780;BME280;1905;52.482;9.802;2022-07-04T10:49:22;101404.06;;;24.12;43.29
3780;BME280;1905;52.482;9.802;2022-07-04T10:51:52;101399.19;;;24.06;43.36
3780;BME280;1905;52.482;9.802;2022-07-04T10:54:28;101397.34;;;24.07;42.91
3780;BME280;1905;52.482;9.802;2022-07-04T10:57:09;101398.31;;;24.06;43.52
3780;BME280;1905;52.482;9.802;2022-07-04T10:59:38;101409.75;;;24.09;42.70
3780;BME280;1905;52.482;9.802;2022-07-04T11:02:36;101398.84;;;24.00;43.23
3780;BME280;1905;52.482;9.802;2022-07-04T11:05:08;101407.69;;;24.02;43.37
3780;BME280;1905;52.482;9.802;2022-07-04T11:07:57;101399.88;;;24.08;43.69
3780;BME280;1905;52.482;9.802;2022-07-04T11:10:25;101394.13;;;24.13;44.35
3780;BME280;1905;52.482;9.802;2022-07-04T11:13:05;101393.00;;;24.15;43.37
3780;BME280;1905;52.482;9.802;2022-07-04T11:16:01;101403.81;;;24.15;44.38
3780;BME280;1905;52.482;9.802;2022-07-04T11:18:30;101404.50;;;24.17;43.86
3780;BME280;1905;52.482;9.802;2022-07-04T11:21:00;101416.03;;;24.19;44.17
3780;BME280;1905;52.482;9.802;2022-07-04T11:23:28;101412.06;;;24.23;42.76
3780;BME280;1905;52.482;9.802;2022-07-04T11:25:56;101393.88;;;24.16;43.53
3780;BME280;1905;52.482;9.802;2022-07-04T11:28:27;101389.34;;;24.26;43.42
3780;BME280;1905;52.482;9.802;2022-07-04T11:31:13;101385.34;;;24.30;42.91
3780;BME280;1905;52.482;9.802;2022-07-04T11:33:43;101395.03;;;24.33;43.51
3780;BME280;1905;52.482;9.802;2022-07-04T11:36:13;101375.69;;;24.27;43.49
3780;BME280;1905;52.482;9.802;2022-07-04T11:38:56;101380.28;;;24.37;43.21
3780;BME280;1905;52.482;9.802;2022-07-04T11:41:27;101376.88;;;24.35;43.31
3780;BME280;1905;52.482;9.802;2022-07-04T11:44:14;101381.13;;;24.47;43.05
3780;BME280;1905;52.482;9.802;2022-07-04T11:47:08;101365.19;;;24.44;43.45
3780;BME280;1905;52.482;9.802;2022-07-04T11:49:41;101368.34;;;24.49;43.99
3780;BME280;1905;52.482;9.802;2022-07-04T11:52:10;101362.81;;;24.60;43.44
3780;BME280;1905;52.482;9.802;2022-07-04T11:54:39;101360.97;;;24.60;43.62
3780;BME280;1905;52.482;9.802;2022-07-04T11:57:21;101363.78;;;24.49;41.67
3780;BME280;1905;52.482;9.802;2022-07-04T11:59:55;101378.88;;;24.52;42.69
3780;BME280;1905;52.482;9.802;2022-07-04T12:02:23;101362.69;;;24.61;42.70
3780;BME280;1905;52.482;9.802;2022-07-04T12:04:52;101371.53;;;24.73;43.46
3780;BME280;1905;52.482;9.802;2022-07-04T12:07:23;101368.81;;;24.73;42.93
3780;BME280;1905;52.482;9.802;2022-07-04T12:09:53;101363.25;;;24.74;43.73
3780;BME280;1905;52.482;9.802;2022-07-04T12:12:22;101365.28;;;24.82;43.23
3780;BME280;1905;52.482;9.802;2022-07-04T12:15:01;101372.41;;;24.83;42.93
3780;BME280;1905;52.482;9.802;2022-07-04T12:17:36;101369.44;;;24.86;42.32
3780;BME280;1905;52.482;9.802;2022-07-04T12:20:11;101370.00;;;24.99;42.81
3780;BME280;1905;52.482;9.802;2022-07-04T12:22:42;101382.22;;;25.03;42.99
3780;BME280;1905;52.482;9.802;2022-07-04T12:25:21;101373.53;;;25.09;42.83
3780;BME280;1905;52.482;9.802;2022-07-04T12:27:58;101366.13;;;25.11;41.64
3780;BME280;1905;52.482;9.802;2022-07-04T12:30:29;101360.44;;;25.24;43.11
3780;BME280;1905;52.482;9.802;2022-07-04T12:32:58;101369.00;;;25.19;41.96
3780;BME280;1905;52.482;9.802;2022-07-04T12:35:42;101366.09;;;25.30;42.86
3780;BME280;1905;52.482;9.802;2022-07-04T12:38:17;101364.97;;;25.33;42.99
3780;BME280;1905;52.482;9.802;2022-07-04T12:40:52;101368.38;;;25.44;41.88
3780;BME280;1905;52.482;9.802;2022-07-04T12:43:21;101359.00;;;25.49;42.58
3780;BME280;1905;52.482;9.802;2022-07-04T12:45:50;101360.41;;;25.53;42.86
3780;BME280;1905;52.482;9.802;2022-07-04T12:48:23;101353.00;;;25.55;41.52
3780;BME280;1905;52.482;9.802;2022-07-04T12:50:52;101353.25;;;25.71;42.14
3780;BME280;1905;52.482;9.802;2022-07-04T12:53:22;101348.13;;;25.68;41.40
3780;BME280;1905;52.482;9.802;2022-07-04T12:55:49;101339.81;;;25.79;41.95
3780;BME280;1905;52.482;9.802;2022-07-04T12:58:17;101334.63;;;25.85;41.90
3780;BME280;1905;52.482;9.802;2022-07-04T13:00:45;101340.63;;;25.89;41.77
3780;BME280;1905;52.482;9.802;2022-07-04T13:03:13;101330.00;;;26.05;41.65
3780;BME280;1905;52.482;9.802;2022-07-04T13:05:41;101329.91;;;26.24;42.19
3780;BME280;1905;52.482;9.802;2022-07-04T13:08:09;101333.88;;;26.30;40.42
3780;BME280;1905;52.482;9.802;2022-07-04T13:10:39;101342.66;;;26.41;41.62
3780;BME280;1905;52.482;9.802;2022-07-04T13:13:07;101326.00;;;26.54;41.09
3780;BME280;1905;52.482;9.802;2022-07-04T13:15:34;101334.13;;;26.72;41.81
3780;BME280;1905;52.482;9.802;2022-07-04T13:18:02;101328.50;;;26.83;41.44
3780;BME280;1905;52.482;9.802;2022-07-04T13:20:30;101336.88;;;26.89;40.23
3780;BME280;1905;52.482;9.802;2022-07-04T13:22:57;101336.78;;;26.99;40.76
3780;BME280;1905;52.482;9.802;2022-07-04T13:25:25;101331.91;;;27.02;38.21